PAL1146 RPVI-RPLL
Flight info
| Callsign | PAL1146 |
|---|---|
| Flight time | 0h 47m |
| Altitude | 28000 |
| Route | LAMBO1N LAMBO B472 IBAGO IBAGO3R |
| Aircraft | A21N/M-SDE3FGHIRWY/LB1 |
Departure
| Time | 2026-05-06 13:29 |
|---|---|
| Airport | Iloilo International Airport (RPVI) |
Arrival
| Time | 2026-05-06 14:17 |
|---|---|
| Airport | Ninoy Aquino International Airport (RPLL) |
| Time | Latitude | Longitude | Altitude | Speed | Heading |
|---|---|---|---|---|---|
| 2026-05-06 13:10 | 10.83114 | 122.49648 | 175 ft | 0 kts | 110° |
| 2026-05-06 13:20 | 10.83115 | 122.49647 | 175 ft | 0 kts | 111° |
| 2026-05-06 13:20 | 10.83119 | 122.49634 | 175 ft | 2 kts | 109° |
| 2026-05-06 13:20 | 10.83125 | 122.49619 | 175 ft | 2 kts | 111° |
| 2026-05-06 13:21 | 10.83130 | 122.49605 | 175 ft | 2 kts | 110° |
| 2026-05-06 13:21 | 10.83135 | 122.49591 | 175 ft | 2 kts | 110° |
| 2026-05-06 13:21 | 10.83145 | 122.49579 | 175 ft | 2 kts | 153° |
| 2026-05-06 13:21 | 10.83160 | 122.49575 | 175 ft | 2 kts | 187° |
| 2026-05-06 13:22 | 10.83167 | 122.49577 | 175 ft | 1 kts | 206° |
| 2026-05-06 13:22 | 10.83172 | 122.49579 | 175 ft | 0 kts | 201° |
| 2026-05-06 13:22 | 10.83171 | 122.49579 | 175 ft | 0 kts | 201° |
| 2026-05-06 13:24 | 10.83166 | 122.49577 | 175 ft | 1 kts | 201° |
| 2026-05-06 13:24 | 10.83140 | 122.49567 | 175 ft | 5 kts | 200° |
| 2026-05-06 13:24 | 10.83100 | 122.49552 | 175 ft | 6 kts | 200° |
| 2026-05-06 13:24 | 10.83053 | 122.49535 | 175 ft | 7 kts | 207° |
| 2026-05-06 13:25 | 10.83030 | 122.49486 | 175 ft | 8 kts | 273° |
| 2026-05-06 13:25 | 10.83048 | 122.49425 | 175 ft | 9 kts | 290° |
| 2026-05-06 13:25 | 10.83072 | 122.49358 | 176 ft | 10 kts | 290° |
| 2026-05-06 13:25 | 10.83090 | 122.49285 | 176 ft | 10 kts | 258° |
| 2026-05-06 13:26 | 10.83031 | 122.49236 | 176 ft | 11 kts | 200° |
| 2026-05-06 13:26 | 10.82951 | 122.49206 | 176 ft | 12 kts | 200° |
| 2026-05-06 13:26 | 10.82868 | 122.49176 | 176 ft | 13 kts | 200° |
| 2026-05-06 13:26 | 10.82780 | 122.49143 | 176 ft | 13 kts | 200° |
| 2026-05-06 13:27 | 10.82691 | 122.49110 | 176 ft | 13 kts | 200° |
| 2026-05-06 13:27 | 10.82598 | 122.49075 | 176 ft | 14 kts | 200° |
| 2026-05-06 13:27 | 10.82503 | 122.49040 | 176 ft | 14 kts | 200° |
| 2026-05-06 13:27 | 10.82406 | 122.49004 | 176 ft | 14 kts | 202° |
| 2026-05-06 13:28 | 10.82314 | 122.48957 | 176 ft | 12 kts | 207° |
| 2026-05-06 13:28 | 10.82258 | 122.48962 | 176 ft | 8 kts | 97° |
| 2026-05-06 13:28 | 10.82315 | 122.48975 | 176 ft | 10 kts | 359° |
| 2026-05-06 13:28 | 10.82349 | 122.48984 | 176 ft | 0 kts | 20° |
| 2026-05-06 13:29 | 10.82485 | 122.49034 | 176 ft | 55 kts | 20° |
| 2026-05-06 13:29 | 10.83070 | 122.49251 | 176 ft | 121 kts | 20° |
| 2026-05-06 13:29 | 10.84055 | 122.49612 | 224 ft | 168 kts | 20° |
| 2026-05-06 13:29 | 10.85168 | 122.50038 | 737 ft | 173 kts | 23° |
| 2026-05-06 13:30 | 10.86293 | 122.50469 | 1414 ft | 173 kts | 22° |
| 2026-05-06 13:30 | 10.87475 | 122.50903 | 1795 ft | 189 kts | 22° |
| 2026-05-06 13:30 | 10.88751 | 122.51382 | 2155 ft | 205 kts | 22° |
| 2026-05-06 13:30 | 10.90164 | 122.51904 | 2469 ft | 226 kts | 21° |
| 2026-05-06 13:31 | 10.91729 | 122.52478 | 2859 ft | 246 kts | 20° |
| 2026-05-06 13:31 | 10.93476 | 122.52691 | 3380 ft | 262 kts | 352° |
| 2026-05-06 13:31 | 10.95130 | 122.51931 | 4156 ft | 270 kts | 327° |
| 2026-05-06 13:31 | 10.96608 | 122.50732 | 4893 ft | 274 kts | 324° |
| 2026-05-06 13:32 | 10.98117 | 122.49512 | 5569 ft | 279 kts | 325° |
| 2026-05-06 13:32 | 10.99632 | 122.48296 | 6240 ft | 284 kts | 325° |
| 2026-05-06 13:32 | 11.01213 | 122.47037 | 6945 ft | 287 kts | 325° |
| 2026-05-06 13:32 | 11.02795 | 122.45779 | 7640 ft | 290 kts | 325° |
| 2026-05-06 13:33 | 11.04380 | 122.44519 | 8304 ft | 292 kts | 325° |
| 2026-05-06 13:33 | 11.05987 | 122.43244 | 8943 ft | 295 kts | 325° |
| 2026-05-06 13:33 | 11.07624 | 122.41946 | 9566 ft | 298 kts | 325° |
| 2026-05-06 13:33 | 11.09264 | 122.40642 | 10155 ft | 301 kts | 325° |
| 2026-05-06 13:34 | 11.10931 | 122.39322 | 10547 ft | 312 kts | 324° |
| 2026-05-06 13:34 | 11.12694 | 122.37927 | 10811 ft | 327 kts | 324° |
| 2026-05-06 13:34 | 11.14552 | 122.36472 | 11087 ft | 340 kts | 326° |
| 2026-05-06 13:34 | 11.16535 | 122.35162 | 11541 ft | 344 kts | 332° |
| 2026-05-06 13:35 | 11.18674 | 122.34058 | 12090 ft | 345 kts | 338° |
| 2026-05-06 13:35 | 11.20912 | 122.33068 | 12627 ft | 348 kts | 339° |
| 2026-05-06 13:35 | 11.23158 | 122.32102 | 13137 ft | 351 kts | 339° |
| 2026-05-06 13:35 | 11.25413 | 122.31136 | 13630 ft | 354 kts | 339° |
| 2026-05-06 13:36 | 11.27685 | 122.30160 | 14126 ft | 356 kts | 339° |
| 2026-05-06 13:36 | 11.29991 | 122.29166 | 14613 ft | 359 kts | 339° |
| 2026-05-06 13:36 | 11.32300 | 122.28169 | 15084 ft | 361 kts | 339° |
| 2026-05-06 13:36 | 11.34620 | 122.27166 | 15542 ft | 364 kts | 339° |
| 2026-05-06 13:37 | 11.36953 | 122.26154 | 15993 ft | 366 kts | 339° |
| 2026-05-06 13:37 | 11.39332 | 122.25124 | 16437 ft | 368 kts | 339° |
| 2026-05-06 13:37 | 11.41685 | 122.24104 | 16856 ft | 371 kts | 339° |
| 2026-05-06 13:37 | 11.44092 | 122.23061 | 17269 ft | 373 kts | 339° |
| 2026-05-06 13:38 | 11.46486 | 122.22021 | 17677 ft | 375 kts | 339° |
| 2026-05-06 13:38 | 11.48888 | 122.20980 | 18076 ft | 377 kts | 339° |
| 2026-05-06 13:38 | 11.51314 | 122.19928 | 18470 ft | 380 kts | 339° |
| 2026-05-06 13:38 | 11.53776 | 122.18859 | 18855 ft | 382 kts | 339° |
| 2026-05-06 13:39 | 11.56204 | 122.17805 | 19221 ft | 384 kts | 339° |
| 2026-05-06 13:39 | 11.58698 | 122.16723 | 19592 ft | 387 kts | 339° |
| 2026-05-06 13:39 | 11.61195 | 122.15639 | 19959 ft | 389 kts | 339° |
| 2026-05-06 13:39 | 11.63688 | 122.14555 | 20321 ft | 391 kts | 338° |
| 2026-05-06 13:40 | 11.66219 | 122.13457 | 20675 ft | 393 kts | 338° |
| 2026-05-06 13:40 | 11.68725 | 122.12368 | 21013 ft | 396 kts | 338° |
| 2026-05-06 13:40 | 11.71296 | 122.11249 | 21351 ft | 398 kts | 338° |
| 2026-05-06 13:40 | 11.73842 | 122.10144 | 21676 ft | 401 kts | 338° |
| 2026-05-06 13:41 | 11.76437 | 122.09015 | 22006 ft | 403 kts | 338° |
| 2026-05-06 13:41 | 11.79024 | 122.07890 | 22332 ft | 405 kts | 338° |
| 2026-05-06 13:41 | 11.81631 | 122.06756 | 22660 ft | 407 kts | 338° |
| 2026-05-06 13:41 | 11.84238 | 122.05622 | 22991 ft | 409 kts | 338° |
| 2026-05-06 13:42 | 11.86841 | 122.04490 | 23317 ft | 410 kts | 338° |
| 2026-05-06 13:42 | 11.89501 | 122.03334 | 23651 ft | 412 kts | 338° |
| 2026-05-06 13:42 | 11.92151 | 122.02181 | 23982 ft | 413 kts | 338° |
| 2026-05-06 13:42 | 11.94780 | 122.01037 | 24298 ft | 415 kts | 338° |
| 2026-05-06 13:43 | 11.97451 | 121.99873 | 24648 ft | 415 kts | 337° |
| 2026-05-06 13:43 | 12.00105 | 121.98715 | 25091 ft | 413 kts | 337° |
| 2026-05-06 13:43 | 12.02739 | 121.97567 | 25549 ft | 410 kts | 337° |
| 2026-05-06 13:43 | 12.05353 | 121.96428 | 25983 ft | 408 kts | 337° |
| 2026-05-06 13:44 | 12.07985 | 121.95280 | 26354 ft | 408 kts | 337° |
| 2026-05-06 13:44 | 12.10608 | 121.94137 | 26654 ft | 410 kts | 336° |
| 2026-05-06 13:44 | 12.13148 | 121.93028 | 26939 ft | 411 kts | 336° |
| 2026-05-06 13:44 | 12.15788 | 121.91876 | 27248 ft | 412 kts | 336° |
| 2026-05-06 13:45 | 12.18442 | 121.90717 | 27554 ft | 414 kts | 336° |
| 2026-05-06 13:45 | 12.23776 | 121.88387 | 27869 ft | 416 kts | 336° |
| 2026-05-06 13:45 | 12.26350 | 121.87261 | 27876 ft | 416 kts | 336° |
| 2026-05-06 13:46 | 12.29025 | 121.86092 | 27879 ft | 416 kts | 336° |
| 2026-05-06 13:46 | 12.31687 | 121.84926 | 27878 ft | 416 kts | 336° |
| 2026-05-06 13:46 | 12.34369 | 121.83754 | 27877 ft | 416 kts | 336° |
| 2026-05-06 13:46 | 12.37016 | 121.82597 | 27881 ft | 416 kts | 336° |
| 2026-05-06 13:47 | 12.39687 | 121.81432 | 27882 ft | 415 kts | 336° |
| 2026-05-06 13:47 | 12.42366 | 121.80263 | 27886 ft | 416 kts | 336° |
| 2026-05-06 13:47 | 12.45031 | 121.79099 | 27885 ft | 415 kts | 336° |
| 2026-05-06 13:47 | 12.47667 | 121.77946 | 27885 ft | 415 kts | 336° |
| 2026-05-06 13:48 | 12.50350 | 121.76772 | 27887 ft | 415 kts | 336° |
| 2026-05-06 13:48 | 12.52993 | 121.75616 | 27892 ft | 415 kts | 336° |
| 2026-05-06 13:48 | 12.55652 | 121.74451 | 27893 ft | 415 kts | 336° |
| 2026-05-06 13:48 | 12.58323 | 121.73280 | 27894 ft | 416 kts | 336° |
| 2026-05-06 13:49 | 12.60990 | 121.72112 | 27895 ft | 415 kts | 336° |
| 2026-05-06 13:49 | 12.63650 | 121.70946 | 27897 ft | 415 kts | 336° |
| 2026-05-06 13:49 | 12.66304 | 121.69783 | 27901 ft | 415 kts | 336° |
| 2026-05-06 13:49 | 12.68963 | 121.68617 | 27902 ft | 415 kts | 336° |
| 2026-05-06 13:50 | 12.71634 | 121.67445 | 27904 ft | 415 kts | 336° |
| 2026-05-06 13:50 | 12.74320 | 121.66266 | 27905 ft | 415 kts | 336° |
| 2026-05-06 13:50 | 12.76982 | 121.65097 | 27907 ft | 416 kts | 336° |
| 2026-05-06 13:50 | 12.79648 | 121.63926 | 27906 ft | 416 kts | 336° |
| 2026-05-06 13:51 | 12.82309 | 121.62758 | 27907 ft | 416 kts | 336° |
| 2026-05-06 13:51 | 12.84966 | 121.61590 | 27908 ft | 416 kts | 336° |
| 2026-05-06 13:51 | 12.87642 | 121.60413 | 27909 ft | 416 kts | 336° |
| 2026-05-06 13:51 | 12.90293 | 121.59248 | 27908 ft | 415 kts | 336° |
| 2026-05-06 13:52 | 12.92951 | 121.58080 | 27906 ft | 412 kts | 336° |
| 2026-05-06 13:52 | 12.95592 | 121.56919 | 27911 ft | 411 kts | 336° |
| 2026-05-06 13:52 | 12.98203 | 121.55771 | 27918 ft | 410 kts | 336° |
| 2026-05-06 13:52 | 13.00837 | 121.54612 | 27915 ft | 409 kts | 336° |
| 2026-05-06 13:53 | 13.03475 | 121.53451 | 27914 ft | 407 kts | 336° |
| 2026-05-06 13:53 | 13.06082 | 121.52305 | 27912 ft | 406 kts | 336° |
| 2026-05-06 13:53 | 13.08686 | 121.51160 | 27915 ft | 406 kts | 336° |
| 2026-05-06 13:53 | 13.11271 | 121.50021 | 27916 ft | 406 kts | 336° |
| 2026-05-06 13:54 | 13.13798 | 121.48907 | 27915 ft | 406 kts | 336° |
| 2026-05-06 13:54 | 13.16046 | 121.47916 | 27917 ft | 406 kts | 336° |
| 2026-05-06 13:54 | 13.18732 | 121.46732 | 27919 ft | 406 kts | 336° |
| 2026-05-06 13:54 | 13.21327 | 121.45589 | 27918 ft | 406 kts | 336° |
| 2026-05-06 13:55 | 13.23964 | 121.44426 | 27918 ft | 406 kts | 336° |
| 2026-05-06 13:55 | 13.26561 | 121.43281 | 27915 ft | 406 kts | 336° |
| 2026-05-06 13:55 | 13.29138 | 121.42144 | 27917 ft | 406 kts | 336° |
| 2026-05-06 13:55 | 13.31752 | 121.40991 | 27918 ft | 407 kts | 336° |
| 2026-05-06 13:56 | 13.34365 | 121.39838 | 27919 ft | 407 kts | 336° |
| 2026-05-06 13:56 | 13.36963 | 121.38690 | 27919 ft | 407 kts | 336° |
| 2026-05-06 13:56 | 13.39558 | 121.37543 | 27842 ft | 404 kts | 336° |
| 2026-05-06 13:56 | 13.42147 | 121.36398 | 27061 ft | 402 kts | 336° |
| 2026-05-06 13:57 | 13.44706 | 121.35264 | 25640 ft | 412 kts | 337° |
| 2026-05-06 13:57 | 13.47353 | 121.34091 | 24327 ft | 415 kts | 337° |
| 2026-05-06 13:57 | 13.49946 | 121.32945 | 23711 ft | 399 kts | 337° |
| 2026-05-06 13:57 | 13.52486 | 121.31805 | 22912 ft | 391 kts | 334° |
| 2026-05-06 13:58 | 13.54771 | 121.30330 | 22081 ft | 387 kts | 322° |
| 2026-05-06 13:58 | 13.56674 | 121.28422 | 21446 ft | 382 kts | 313° |
| 2026-05-06 13:58 | 13.58406 | 121.26402 | 21064 ft | 377 kts | 312° |
| 2026-05-06 13:58 | 13.60122 | 121.24369 | 20709 ft | 371 kts | 312° |
| 2026-05-06 13:59 | 13.61799 | 121.22385 | 20408 ft | 364 kts | 312° |
| 2026-05-06 13:59 | 13.63439 | 121.20453 | 20121 ft | 358 kts | 312° |
| 2026-05-06 13:59 | 13.65076 | 121.18529 | 19885 ft | 350 kts | 312° |
| 2026-05-06 13:59 | 13.66674 | 121.16656 | 19652 ft | 349 kts | 312° |
| 2026-05-06 14:00 | 13.68282 | 121.14774 | 19419 ft | 348 kts | 312° |
| 2026-05-06 14:00 | 13.69858 | 121.12929 | 19196 ft | 347 kts | 312° |
| 2026-05-06 14:00 | 13.71460 | 121.11053 | 18961 ft | 346 kts | 313° |
| 2026-05-06 14:00 | 13.73044 | 121.09199 | 18734 ft | 344 kts | 313° |
| 2026-05-06 14:01 | 13.74622 | 121.07351 | 18511 ft | 343 kts | 312° |
| 2026-05-06 14:01 | 13.76202 | 121.05501 | 18279 ft | 342 kts | 312° |
| 2026-05-06 14:01 | 13.77771 | 121.03662 | 18070 ft | 342 kts | 312° |
| 2026-05-06 14:01 | 13.79337 | 121.01834 | 17846 ft | 338 kts | 313° |
| 2026-05-06 14:02 | 13.80892 | 121.00023 | 17449 ft | 337 kts | 313° |
| 2026-05-06 14:02 | 13.82442 | 120.98214 | 17007 ft | 337 kts | 313° |
| 2026-05-06 14:02 | 13.83976 | 120.96420 | 16608 ft | 335 kts | 313° |
| 2026-05-06 14:02 | 13.85511 | 120.94616 | 16231 ft | 333 kts | 313° |
| 2026-05-06 14:03 | 13.87037 | 120.92820 | 15857 ft | 331 kts | 312° |
| 2026-05-06 14:03 | 13.88546 | 120.91046 | 15495 ft | 328 kts | 313° |
| 2026-05-06 14:03 | 13.90043 | 120.89280 | 15127 ft | 325 kts | 313° |
| 2026-05-06 14:03 | 13.91511 | 120.87550 | 14767 ft | 322 kts | 313° |
| 2026-05-06 14:04 | 13.92979 | 120.85820 | 14404 ft | 320 kts | 313° |
| 2026-05-06 14:04 | 13.94441 | 120.84092 | 14019 ft | 318 kts | 312° |
| 2026-05-06 14:04 | 13.95902 | 120.82367 | 13638 ft | 316 kts | 313° |
| 2026-05-06 14:04 | 13.97324 | 120.80685 | 13261 ft | 314 kts | 313° |
| 2026-05-06 14:05 | 13.98749 | 120.78994 | 12867 ft | 312 kts | 313° |
| 2026-05-06 14:05 | 14.00175 | 120.77294 | 12471 ft | 311 kts | 313° |
| 2026-05-06 14:05 | 14.01590 | 120.75604 | 12080 ft | 310 kts | 313° |
| 2026-05-06 14:05 | 14.03005 | 120.73914 | 11676 ft | 309 kts | 313° |
| 2026-05-06 14:06 | 14.04395 | 120.72249 | 11289 ft | 308 kts | 313° |
| 2026-05-06 14:06 | 14.05788 | 120.70571 | 10909 ft | 307 kts | 313° |
| 2026-05-06 14:06 | 14.07172 | 120.68894 | 10524 ft | 305 kts | 313° |
| 2026-05-06 14:06 | 14.08543 | 120.67229 | 10155 ft | 304 kts | 313° |
| 2026-05-06 14:07 | 14.09901 | 120.65569 | 9764 ft | 303 kts | 313° |
| 2026-05-06 14:07 | 14.11225 | 120.63947 | 9398 ft | 301 kts | 313° |
| 2026-05-06 14:07 | 14.12455 | 120.62437 | 9073 ft | 299 kts | 312° |
| 2026-05-06 14:07 | 14.13802 | 120.60784 | 8714 ft | 297 kts | 313° |
| 2026-05-06 14:08 | 14.15138 | 120.59141 | 8340 ft | 296 kts | 312° |
| 2026-05-06 14:08 | 14.16584 | 120.57653 | 7939 ft | 291 kts | 329° |
| 2026-05-06 14:08 | 14.18432 | 120.56908 | 7550 ft | 281 kts | 356° |
| 2026-05-06 14:08 | 14.20325 | 120.57082 | 7173 ft | 272 kts | 20° |
| 2026-05-06 14:09 | 14.22096 | 120.57797 | 6790 ft | 270 kts | 26° |
| 2026-05-06 14:09 | 14.23794 | 120.58595 | 6408 ft | 269 kts | 27° |
| 2026-05-06 14:09 | 14.25487 | 120.59415 | 6045 ft | 268 kts | 27° |
| 2026-05-06 14:09 | 14.27171 | 120.60236 | 5676 ft | 266 kts | 27° |
| 2026-05-06 14:10 | 14.28854 | 120.61057 | 5310 ft | 265 kts | 27° |
| 2026-05-06 14:10 | 14.30371 | 120.62048 | 5011 ft | 258 kts | 48° |
| 2026-05-06 14:10 | 14.31245 | 120.63656 | 5011 ft | 259 kts | 73° |
| 2026-05-06 14:10 | 14.31656 | 120.65494 | 5009 ft | 262 kts | 79° |
| 2026-05-06 14:11 | 14.31999 | 120.67320 | 5009 ft | 262 kts | 76° |
| 2026-05-06 14:11 | 14.32605 | 120.69092 | 5000 ft | 262 kts | 65° |
| 2026-05-06 14:11 | 14.33476 | 120.70772 | 4992 ft | 263 kts | 60° |
| 2026-05-06 14:11 | 14.34408 | 120.72386 | 4873 ft | 262 kts | 59° |
| 2026-05-06 14:12 | 14.35346 | 120.74006 | 4752 ft | 261 kts | 59° |
| 2026-05-06 14:12 | 14.36253 | 120.75601 | 4630 ft | 261 kts | 60° |
| 2026-05-06 14:12 | 14.37163 | 120.77226 | 4506 ft | 260 kts | 60° |
| 2026-05-06 14:12 | 14.38065 | 120.78853 | 4383 ft | 261 kts | 60° |
| 2026-05-06 14:13 | 14.38974 | 120.80499 | 4145 ft | 262 kts | 60° |
| 2026-05-06 14:13 | 14.39868 | 120.82120 | 3803 ft | 261 kts | 60° |
| 2026-05-06 14:13 | 14.40774 | 120.83761 | 3461 ft | 260 kts | 59° |
| 2026-05-06 14:13 | 14.41663 | 120.85370 | 3143 ft | 258 kts | 60° |
| 2026-05-06 14:14 | 14.42546 | 120.86964 | 2814 ft | 256 kts | 60° |
| 2026-05-06 14:14 | 14.43435 | 120.88570 | 2472 ft | 251 kts | 60° |
| 2026-05-06 14:14 | 14.44276 | 120.90089 | 2159 ft | 240 kts | 60° |
| 2026-05-06 14:14 | 14.45088 | 120.91554 | 1849 ft | 225 kts | 59° |
| 2026-05-06 14:15 | 14.45852 | 120.92931 | 1590 ft | 211 kts | 60° |
| 2026-05-06 14:15 | 14.46546 | 120.94180 | 1395 ft | 194 kts | 60° |
| 2026-05-06 14:15 | 14.47200 | 120.95360 | 1141 ft | 179 kts | 60° |
| 2026-05-06 14:15 | 14.47790 | 120.96422 | 879 ft | 164 kts | 60° |
| 2026-05-06 14:16 | 14.48335 | 120.97395 | 638 ft | 148 kts | 62° |
| 2026-05-06 14:16 | 14.48819 | 120.98278 | 487 ft | 138 kts | 62° |
| 2026-05-06 14:16 | 14.49298 | 120.99147 | 335 ft | 137 kts | 61° |
| 2026-05-06 14:16 | 14.49780 | 121.00002 | 146 ft | 137 kts | 64° |
| 2026-05-06 14:17 | 14.50236 | 121.00824 | 83 ft | 120 kts | 62° |
| 2026-05-06 14:17 | 14.50563 | 121.01418 | 82 ft | 71 kts | 60° |
| 2026-05-06 14:17 | 14.50714 | 121.01666 | 82 ft | 27 kts | 49° |
| 2026-05-06 14:17 | 14.50812 | 121.01756 | 82 ft | 10 kts | 38° |
| 2026-05-06 14:18 | 14.50878 | 121.01791 | 82 ft | 10 kts | 347° |
| 2026-05-06 14:18 | 14.50900 | 121.01733 | 82 ft | 6 kts | 246° |
| 2026-05-06 14:18 | 14.50896 | 121.01726 | 82 ft | 0 kts | 241° |
| 2026-05-06 14:18 | 14.50894 | 121.01723 | 82 ft | 1 kts | 240° |
| 2026-05-06 14:19 | 14.50882 | 121.01701 | 82 ft | 6 kts | 241° |
| 2026-05-06 14:19 | 14.50857 | 121.01656 | 82 ft | 7 kts | 240° |
| 2026-05-06 14:19 | 14.50828 | 121.01605 | 82 ft | 8 kts | 240° |
| 2026-05-06 14:19 | 14.50795 | 121.01546 | 82 ft | 9 kts | 239° |
| 2026-05-06 14:20 | 14.50759 | 121.01482 | 82 ft | 10 kts | 242° |
| 2026-05-06 14:20 | 14.50723 | 121.01414 | 82 ft | 11 kts | 240° |
| 2026-05-06 14:20 | 14.50682 | 121.01342 | 82 ft | 11 kts | 239° |
| 2026-05-06 14:20 | 14.50640 | 121.01266 | 82 ft | 12 kts | 241° |
| 2026-05-06 14:21 | 14.50595 | 121.01185 | 82 ft | 13 kts | 240° |
| 2026-05-06 14:21 | 14.50548 | 121.01099 | 82 ft | 13 kts | 239° |
| 2026-05-06 14:21 | 14.50500 | 121.01013 | 82 ft | 14 kts | 240° |
| 2026-05-06 14:21 | 14.50450 | 121.00924 | 82 ft | 14 kts | 240° |
| 2026-05-06 14:22 | 14.50401 | 121.00835 | 82 ft | 13 kts | 240° |
| 2026-05-06 14:22 | 14.50376 | 121.00746 | 82 ft | 13 kts | 281° |
| 2026-05-06 14:22 | 14.50382 | 121.00657 | 82 ft | 12 kts | 250° |
| 2026-05-06 14:22 | 14.50354 | 121.00578 | 82 ft | 10 kts | 291° |
| 2026-05-06 14:23 | 14.50419 | 121.00579 | 82 ft | 10 kts | 21° |
| 2026-05-06 14:23 | 14.50475 | 121.00595 | 82 ft | 3 kts | 14° |
| 2026-05-06 14:23 | 14.50488 | 121.00598 | 82 ft | 0 kts | 14° |